Timeline UpdatesTrip UpdatesNews PostsPvt PostsTravel TipsAdmin PostsConv PostsFollowed PostsChat RequestsBlog PostsPNR Posts

Disclaimer
Search
 
 
Sat Aug 23, 2014 22:51:03 ISTHomeTrainsΣChainsAtlasPNRForumGalleryNewsFAQTripsMembersLoginFeedback
No Recent News for this Train
Other Trains in the News **new
Latest...
.
Fri Dec 13, 2013 (03:40PM)
⇐ Return Journey: Train# 12833

12834/Howrah - Ahmedabad SF Express

Jul 14 2014 (10:03PM)
Change Departure Station:
Change Arrival Station:
Post a Train Travel TipPost a Train Travel Tip **new
Post a Comment/Question/Picture/VideoPost a Comment/Question/Picture/Video
Pantry/Catering
✓ Pantry Car Avbl
✓ Catering Avbl
RSA - Rake Sharing
Rake/Coach Composition
LOCO(SRC WAP 4E)-SLR-GEN-S1-S2-S3-S4-S5-S6-S7-S8-S9-S10-S11-S12-PC-S13-B1-B2-A1-A2-GEN-SLR
Loco
Loco: SRC WAP 4 ... Entry# 289462
News    PNR    Forum    Time-Table    Availability    Fare Chart    Map    Arr/Dep History    Trips    Gallery    ΣChains    X/O    Timeline    
Travel Time: 3h 2m    4 halts    Distance: 170 km    Avg Speed: 56 km/hr
Type: SuperFast
Zone: SER/South Eastern
Departs @ 09:58 (Avg 44m late)
Platform# 3
SMTWTFS
Bharuch Junction/BH 
Arrives @ 13:00 (Avg 35m late)
Platform# 6
SMTWTFS
Ahmedabad Junction/ADI 

4 halts. 34 intermediate Stations between Bharuch Junction and Ahmedabad Junction

Show ALL intermediate Stations  Show Old Time-Table

#CodeStation NameX/OArrivesAvgDepartsAvgHaltPFDay#KmSpeedElevZoneAddress
1HWHKolkata Howrah Junction (23)  -23:55+5221-1917.86410mERHowrah 711101, West Bengal
2MCAMecheda (6)  00:50+1000:52+182m--2-1859.63510mSERdist - purba Medinipur, West Bengal
3PKUPanskura Junction (6)X  01:13+901:15+112m--2-1847.2599mSERPanskura, West Bengal
4KGPKharagpur Junction (10)  02:00+902:05+105m32-1802.87742mSERKharagpur, West Bengal
5TATATatanagar Junction (5)XO  03:50+1603:55+165m--2-1667.868164mSER91-657-2423026, Jharkhand
6CKPChakradharpur (3)  04:50+1604:57+177m12-1605.578235mSERChakradharpur (West Singhbhum), Jharkhand
7ROURourkela Junction (5)X  06:15+1906:30+1915m32-1504.462198mSERRourkela, Odisha
8GPRaj Gangpur (3)  06:59+2007:00+221m12-1474.672237mSERRaj Ganpur, Odisha
9BMBBamra (3)  07:29+2407:30+251m--2-1440.058259mSERBamra PH : 06642-229268, Odisha
10JSGJharsuguda Junction (5)X  08:08+2108:10+252m--2-1403.588236mSERJharsuguda, Odisha
11BRJNBrajrajnagar  08:18+3108:20+312m--2-1391.867212mSECRBrajrajnagar, Odisha
12BPHBelpahar  08:28+3208:30+322m--2-1382.985235mSECRBelpahar, Odisha
13RIGRaigarh (3)  09:06+3809:11+375m--2-1331.893220mSECRRaigarh, Chhattisgarh
14KHSKharsia  09:33+4809:35+482m--2-1297.991259mSECRNational Highway 200, Chhattisgarh
15BUABaradwarX  09:55+5609:57+572m--2-1267.655256mSECRJanjgir-Champa, Chhattisgarh
16CPHChampa Junction (3)X  10:14+5510:19+525m32-1252.172264mSECRNational Highway 200 (07819-245767), Chhattisgarh
17NIANailaX  10:28+5510:30+552m--2-1241.275273mSECRJanjgir, Chhattisgarh
18AKTAkaltara (4)X  10:42+5610:44+572m--2-1226.329284mSECRDist. Janjgir Champa, Chhattisgarh
19BSPBilaspur Junction (8)X  11:40+2611:55+3515m22-1199.177271mSECRBilaspur, Chhattisgarh
20BYTBhatapara (4)X  12:31+3912:33+402m22-1152.987270mSECRBanjari Road, Chhattisgarh
21TLDTilda (3)X  12:51+4012:53+422m--2-1126.855291mSECRBanjari Rd, Chhattisgarh
22RRaipur Junction (6)X  13:35+4113:45+4010m52-1088.680297mSECRRaipur, Chhattisgarh
23BPHBBhilai Power House (3)XO  14:06+1814:08+182m12-1060.617312mSECRBhilai, Chhattisgarh
24DURGDurg Junction (6)X  14:40+3014:45+315m42-1051.787299mSECRPh: 91-788-2322059, Chhattisgarh
25RJNRaj Nandgaon (3)  15:06+3815:08+382m--2-1021.286313mSECRRajnandgaon, Chhattisgarh
26DGGDongargarh (2)  15:30+4415:32+462m12-989.776353mSECRDongargarh, Chhattisgarh
27AGNAmgaon (2)X  16:12+5316:14+542m--2-939.247317mSECRGondia, Maharashtra
28GGondia Junction (7)X  16:43+4416:48+445m22-916.492316mSECRGondia 441601, Maharashtra
29TROTirora (3)  17:07+4917:09+492m--2-887.172282mSECRDist Gondiya, Maharashtra
30TMRTumsar Road (3)  17:26+4617:28+472m--2-866.872267mSECRBhandara, Maharashtra
31BRDBhandara Road (2)X  17:43+4817:45+482m22-848.893266mSECRState Highway 252, Maharashtra
32KPKamptee (3)X  18:16+5018:18+502m--2-800.920290mSECRMH 441001, Maharashtra
33NGPNagpur Junction (8)X  19:00+3719:10+4110m32-786.620314mCRNagpur 440001, Maharashtra
34AJNIAjni (3)X  19:19+4619:20+471m32-783.571310mCRNagpur 440003, Maharashtra
35WRWardha Junction (4)X  20:24+4220:27+423m12-707.781289mCRWardha 442001, Maharashtra
36PLOPulgaon Junction (3)  20:49+4520:50+461m22-678.167273mCRPulgaon, Maharashtra
37DMNDhamangaon (2)  21:08+4521:09+461m--2-658.267300mCRDhamangaon, Maharashtra
38CNDChandur (2)X  21:24+4721:25+471m--2-641.538331mCRAmravati Distt, Maharashtra
39BDBadnera Junction (4)X  22:10+3622:15+375m12-612.886335mCRBadnera (Amravati) 444701, Maharashtra
40MZRMurtizapur (3)X  22:44+4422:45+481m--2-570.974303mCRMurtajapur, Maharashtra
41AKAkola Junction (7)  23:15+5023:20+515m12-533.893284mCRAkola-444001, Maharashtra
42SEGShegaon (2)  23:44+5523:45+561m22-496.668281mCRShegaon 444203, Maharashtra
43JMJalamb Junction (3)  23:56+5423:58+562m12-484.267259mCRJalamb, Maharashtra
44NNNandura  00:09+5500:10+591m13-472.070267mCRNandura, Maharashtra
45MKUMalkapur (2)  00:34+5600:35+581m23-444.150252mCRMalkapur, Maharashtra
46BSLBhusaval Junction (8)XO  01:35+4801:45+5010m43-394.241208mCRBhusaval 425201, Maharashtra
47JLJalgaon Junction (4)X  02:20+4002:25+415m23-370.051213mCRJalgaon 425001, Maharashtra
48DXGDharangaon (2)  03:00+4903:01+501m13-340.351217mWRDharangaon, Maharashtra
49ANAmalner (2)  03:30+4503:33+443m13-315.473188mWRAmalner, Maharashtra
50SNKSindkheda (1)  04:07+5004:08+511m13-273.945178mWRState Highway 11, Maharashtra
51DDEDondaicha (2)X  04:34+4704:35+481m23-254.549163mWRDondaicha, Maharashtra
52NDBNandurbar (3)  05:17+4305:25+428m13-220.150203mWRNandurbar, Maharashtra
53NWUNavapur (2)  06:35+3406:37+372m--3-162.255124mWRNavapur, Gujarat
54VYAVyara (2)  07:23+3407:25+342m13-120.26090mWRVyara, Gujarat
55MIDMadhi (1)  07:40+3707:42+372m13-105.35945mWRMadhi, Gujarat
56BIYBardoli (2)X  07:57+3907:59+392m--3-90.53735mWRNear Bardoli Sugar Factory Bardoli, Gujarat
57UDNUdhna Junction (3)XO  08:43+2908:45+312m13-63.31416mWRUdhna 394210, Gujarat
58STSurat (4)X  09:02+2809:12+2710m23-59.38119mWRSurat 395001, Gujarat
59BH»Bharuch Junction (5)»X  09:56+4209:58+442m330.07419mWRBharuch, Gujarat
60BRCVadodara Junction (7)X  10:55+5111:00+525m3370.57236mWRVadodara 390005, Gujarat
61ANNDAnand Junction (6)  11:30+5011:32+512m23106.35344mWRAnand, Gujarat
62NDNadiad Junction (4)X  11:53+4211:55+422m--3124.85837mWRNadiad, Gujarat
63MANManinagar (2)X  12:39+1012:41+102m13167.21050mWRAhmadabad, Gujarat
64ADI•Ahmedabad Junction (12)•  13:00+35-63170.3-51mWRAhmedabad, Gujarat
Scroll to Top
Scroll to Bottom